Christman Field Latest Observations
Date Time
MST
Temp
°F
RH
%
DewPt
°F
Wind
mph
Dir
°
Gust
mph
Dir
°
Press
in Hg
Solar
W/m^2
Prec
in
2020-07-15 21:45 67.4 72.5 58.3 1.8 80 3.2 80 24.937 0.0 0.00
2020-07-15 21:40 68.0 70.8 58.2 2.8 80 4.2 103 24.938 0.0 0.00
2020-07-15 21:35 68.2 70.4 58.2 4.1 114 6.4 150 24.940 0.0 0.00
2020-07-15 21:30 68.5 69.5 58.1 4.7 161 5.9 141 24.943 0.0 0.00
2020-07-15 21:25 68.8 68.4 58.0 4.8 135 6.5 125 24.946 0.0 0.00
2020-07-15 21:20 69.1 67.3 57.8 5.4 115 7.5 149 24.948 0.0 0.00
2020-07-15 21:15 69.3 66.0 57.4 5.0 125 8.0 131 24.948 0.0 0.00
2020-07-15 21:10 69.3 64.7 56.9 3.2 153 4.3 115 24.948 0.0 0.00
2020-07-15 21:05 69.3 64.4 56.8 3.3 99 4.9 96 24.948 0.0 0.00
2020-07-15 21:00 69.5 63.7 56.7 2.3 101 3.1 131 24.947 0.0 0.00
2020-07-15 20:55 69.8 63.4 56.8 3.5 142 4.6 133 24.947 0.0 0.00
2020-07-15 20:50 70.0 62.7 56.7 3.9 118 5.9 138 24.948 0.0 0.00
2020-07-15 20:45 70.2 62.2 56.6 4.7 113 8.3 127 24.949 0.0 0.00
2020-07-15 20:40 69.9 62.4 56.5 5.0 142 8.0 164 24.949 0.0 0.00
2020-07-15 20:35 69.8 63.7 56.9 4.4 179 7.0 178 24.950 0.0 0.00
2020-07-15 20:30 69.8 63.9 57.1 3.6 162 5.4 185 24.950 0.0 0.00
2020-07-15 20:25 70.1 63.9 57.3 4.2 166 6.3 178 24.949 0.0 0.00
2020-07-15 20:20 70.7 63.0 57.5 3.3 172 5.2 164 24.948 0.0 0.00
2020-07-15 20:15 71.2 61.7 57.4 3.8 165 6.9 150 24.946 0.0 0.00
2020-07-15 20:10 71.1 61.2 57.1 5.8 145 8.7 156 24.946 0.0 0.00
2020-07-15 20:05 71.2 61.5 57.3 4.7 172 5.9 142 24.945 0.0 0.00
2020-07-15 20:00 71.3 61.3 57.3 4.5 139 6.3 158 24.945 0.1 0.00
2020-07-15 19:55 71.5 61.0 57.4 3.7 141 5.3 128 24.943 0.4 0.00
2020-07-15 19:50 71.9 60.0 57.2 4.9 145 6.6 135 24.944 1.4 0.00
2020-07-15 19:45 72.1 59.2 57.1 5.4 128 7.7 137 24.944 5.0 0.00
2020-07-15 19:40 72.2 59.0 57.1 5.2 146 6.9 142 24.942 10.7 0.00
2020-07-15 19:35 72.4 58.5 57.1 5.5 151 8.2 139 24.944 11.8 0.00
2020-07-15 19:30 72.5 58.2 57.0 5.5 141 9.5 127 24.945 11.2 0.00
2020-07-15 19:25 72.7 58.4 57.2 6.4 114 8.8 133 24.945 12.3 0.00
2020-07-15 19:20 72.8 58.3 57.3 5.2 134 8.8 128 24.945 17.1 0.00
CIRA

Cooperative Institute for Research in the Atmosphere